createdAt,value
2018-07-04T00:00:56.689Z,18.50
2018-07-04T00:03:36.337Z,18.60
2018-07-04T00:06:16.203Z,18.67
2018-07-04T00:08:55.936Z,18.30
2018-07-04T00:11:35.836Z,18.43
2018-07-04T00:14:15.628Z,18.20
2018-07-04T00:16:55.352Z,18.20
2018-07-04T00:19:35.068Z,18.09
2018-07-04T00:22:14.822Z,17.97
2018-07-04T00:24:54.661Z,18.00
2018-07-04T00:27:34.581Z,17.95
2018-07-04T00:30:14.368Z,17.90
2018-07-04T00:32:54.188Z,17.80
2018-07-04T00:35:33.971Z,17.81
2018-07-04T00:38:13.764Z,17.87
2018-07-04T00:40:53.561Z,17.76
2018-07-04T00:43:33.313Z,17.48
2018-07-04T00:46:13.105Z,17.59
2018-07-04T00:48:52.860Z,17.69
2018-07-04T00:51:32.694Z,17.72
2018-07-04T00:54:12.508Z,17.81
2018-07-04T00:56:52.344Z,17.64
2018-07-04T00:59:31.964Z,17.71
2018-07-04T01:02:11.756Z,17.63
2018-07-04T01:04:51.505Z,17.56
2018-07-04T01:07:31.185Z,17.55
2018-07-04T01:10:10.918Z,17.52
2018-07-04T01:12:50.672Z,17.45
2018-07-04T01:15:30.440Z,17.50
2018-07-04T01:18:10.185Z,17.34
2018-07-04T01:20:55.328Z,17.46
2018-07-04T01:23:35.004Z,17.31
2018-07-04T01:26:14.688Z,17.21
2018-07-04T01:28:54.584Z,17.13
2018-07-04T01:31:34.376Z,17.08
2018-07-04T01:34:14.238Z,17.16
2018-07-04T01:36:53.906Z,17.18
2018-07-04T01:39:33.736Z,17.18
2018-07-04T01:42:13.399Z,17.31
2018-07-04T01:44:53.229Z,17.20
2018-07-04T01:47:32.948Z,16.99
2018-07-04T01:50:12.744Z,16.90
2018-07-04T01:52:52.532Z,16.98
2018-07-04T01:55:32.282Z,16.88
2018-07-04T01:58:12.052Z,16.66
2018-07-04T02:00:51.692Z,16.45
2018-07-04T02:03:31.432Z,16.54
2018-07-04T02:06:11.264Z,16.60
2018-07-04T02:08:50.773Z,16.88
2018-07-04T02:11:30.816Z,16.71
2018-07-04T02:14:10.400Z,16.73
2018-07-04T02:16:50.300Z,16.66
2018-07-04T02:19:30.113Z,16.58
2018-07-04T02:22:09.989Z,16.50
2018-07-04T02:24:49.668Z,16.61
2018-07-04T02:27:29.384Z,16.61
2018-07-04T02:30:09.172Z,16.64
2018-07-04T02:32:48.873Z,16.76
2018-07-04T02:35:28.746Z,16.67
2018-07-04T02:38:08.445Z,16.50
2018-07-04T02:40:48.000Z,16.66
2018-07-04T02:43:27.609Z,16.65
2018-07-04T02:46:07.421Z,16.71
2018-07-04T02:48:47.272Z,16.68
2018-07-04T02:51:27.132Z,16.56
2018-07-04T02:54:07.000Z,16.27
2018-07-04T02:56:46.772Z,16.44
2018-07-04T02:59:26.656Z,16.38
2018-07-04T03:02:06.288Z,16.52
2018-07-04T03:04:45.989Z,16.35
2018-07-04T03:07:25.576Z,16.36
2018-07-04T03:10:05.209Z,16.29
2018-07-04T03:12:44.985Z,16.48
2018-07-04T03:15:24.796Z,16.52
2018-07-04T03:18:04.550Z,16.27
2018-07-04T03:20:44.311Z,16.23
2018-07-04T03:23:24.052Z,16.19
2018-07-04T03:26:03.959Z,16.15
2018-07-04T03:28:43.560Z,16.14
2018-07-04T03:31:23.433Z,16.11
2018-07-04T03:34:03.192Z,16.24
2018-07-04T03:36:42.937Z,16.48
2018-07-04T03:39:22.601Z,16.26
2018-07-04T03:42:02.464Z,16.39
2018-07-04T03:44:42.288Z,16.38
2018-07-04T03:47:22.105Z,16.37
2018-07-04T03:50:01.844Z,16.27
2018-07-04T03:52:41.566Z,16.35
2018-07-04T03:55:21.212Z,16.36
2018-07-04T03:58:00.977Z,16.27
2018-07-04T04:00:40.723Z,16.48
2018-07-04T04:03:20.596Z,16.41
2018-07-04T04:06:00.292Z,16.19
2018-07-04T04:08:40.029Z,16.28
2018-07-04T04:11:19.696Z,16.41
2018-07-04T04:13:59.367Z,16.54
2018-07-04T04:16:39.064Z,16.63
2018-07-04T04:19:22.824Z,16.41
2018-07-04T04:22:02.582Z,16.64
2018-07-04T04:24:42.345Z,16.66
2018-07-04T04:27:21.965Z,16.52
2018-07-04T04:30:01.792Z,16.44
2018-07-04T04:32:41.769Z,16.66
2018-07-04T04:35:21.457Z,16.75
2018-07-04T04:38:01.249Z,16.86
2018-07-04T04:40:41.166Z,16.89
2018-07-04T04:43:20.864Z,16.99
2018-07-04T04:46:00.724Z,17.18
2018-07-04T04:48:40.436Z,17.32
2018-07-04T04:51:20.624Z,17.41
2018-07-04T04:54:00.296Z,17.64
2018-07-04T04:56:40.033Z,17.60
2018-07-04T04:59:19.909Z,17.78
2018-07-04T05:01:59.841Z,18.10
2018-07-04T05:04:39.545Z,18.04
2018-07-04T05:07:19.252Z,18.10
2018-07-04T05:09:58.871Z,18.37
2018-07-04T05:12:38.709Z,18.47
2018-07-04T05:15:18.492Z,18.86
2018-07-04T05:17:58.217Z,19.02
2018-07-04T05:20:37.976Z,18.99
2018-07-04T05:23:17.798Z,18.82
2018-07-04T05:25:57.476Z,19.12
2018-07-04T05:28:37.337Z,18.84
2018-07-04T05:31:17.064Z,19.13
2018-07-04T05:33:56.777Z,19.67
2018-07-04T05:36:36.836Z,19.74
2018-07-04T05:39:16.369Z,20.02
2018-07-04T05:41:56.160Z,20.76
2018-07-04T05:44:35.929Z,21.48
2018-07-04T05:47:15.636Z,21.84
2018-07-04T05:49:55.316Z,22.16
2018-07-04T05:52:35.128Z,22.31
2018-07-04T05:55:15.006Z,22.59
2018-07-04T05:57:54.858Z,22.54
2018-07-04T06:00:34.684Z,22.25
2018-07-04T06:03:14.473Z,22.44
2018-07-04T06:05:54.205Z,22.81
2018-07-04T06:08:33.920Z,22.54
2018-07-04T06:11:13.720Z,22.63
2018-07-04T06:13:54.214Z,23.23
2018-07-04T06:16:33.959Z,22.54
2018-07-04T06:19:13.713Z,22.67
2018-07-04T06:21:53.620Z,23.01
2018-07-04T06:24:33.824Z,23.09
2018-07-04T06:27:13.713Z,22.69
2018-07-04T06:29:53.524Z,22.57
2018-07-04T06:32:33.373Z,22.86
2018-07-04T06:35:13.171Z,23.28
2018-07-04T06:37:41.946Z,23.29
2018-07-04T06:40:09.840Z,23.10
2018-07-04T06:42:37.957Z,23.09
2018-07-04T06:45:05.264Z,23.30
2018-07-04T06:47:32.676Z,23.18
2018-07-04T06:50:00.044Z,23.24
2018-07-04T06:52:27.323Z,23.68
2018-07-04T06:54:54.637Z,23.39
2018-07-04T06:57:21.920Z,23.64
2018-07-04T06:59:49.728Z,23.45
2018-07-04T07:02:18.496Z,23.71
2018-07-04T07:04:59.396Z,23.56
2018-07-04T07:07:39.035Z,23.57
2018-07-04T07:10:19.532Z,23.51
2018-07-04T07:12:59.123Z,23.40
2018-07-04T07:15:38.784Z,23.64
2018-07-04T07:18:18.465Z,23.55
2018-07-04T07:20:58.368Z,24.06
2018-07-04T07:23:38.117Z,23.96
2018-07-04T07:26:17.908Z,24.13
2018-07-04T07:28:57.663Z,24.02
2018-07-04T07:31:37.329Z,24.06
2018-07-04T07:34:17.280Z,24.67
2018-07-04T07:36:57.108Z,24.70
2018-07-04T07:39:36.988Z,24.62
2018-07-04T07:42:16.756Z,24.63
2018-07-04T07:44:56.504Z,25.07
2018-07-04T07:47:36.344Z,24.98
2018-07-04T07:50:16.076Z,25.94
2018-07-04T07:52:55.851Z,25.45
2018-07-04T07:55:35.522Z,25.05
2018-07-04T07:58:15.340Z,25.11
2018-07-04T08:00:55.161Z,25.09
2018-07-04T08:03:34.924Z,25.05
2018-07-04T08:06:14.652Z,24.86
2018-07-04T08:08:54.428Z,25.05
2018-07-04T08:11:34.176Z,25.17
2018-07-04T08:14:13.985Z,25.04
2018-07-04T08:16:53.677Z,25.32
2018-07-04T08:19:33.481Z,26.21
2018-07-04T08:22:13.124Z,25.51
2018-07-04T08:24:52.764Z,25.61
2018-07-04T08:27:32.715Z,25.32
2018-07-04T08:30:12.477Z,25.31
2018-07-04T08:32:52.308Z,25.49
